sensor_id;sensor_type;location;lat;lon;timestamp;P1;durP1;ratioP1;P2;durP2;ratioP2
33593;SDS011;19920;52.242;20.940;2023-03-23T00:01:16;42.95;;;26.58;;
33593;SDS011;19920;52.242;20.940;2023-03-23T00:03:50;45.55;;;26.25;;
33593;SDS011;19920;52.242;20.940;2023-03-23T00:08:44;45.58;;;25.35;;
33593;SDS011;19920;52.242;20.940;2023-03-23T00:11:15;41.35;;;25.85;;
33593;SDS011;19920;52.242;20.940;2023-03-23T00:13:44;44.10;;;27.00;;
33593;SDS011;19920;52.242;20.940;2023-03-23T00:16:11;41.90;;;26.33;;
33593;SDS011;19920;52.242;20.940;2023-03-23T00:18:45;42.10;;;26.00;;
33593;SDS011;19920;52.242;20.940;2023-03-23T00:21:12;39.88;;;25.40;;
33593;SDS011;19920;52.242;20.940;2023-03-23T00:23:38;40.50;;;25.42;;
33593;SDS011;19920;52.242;20.940;2023-03-23T00:26:04;40.42;;;26.35;;
33593;SDS011;19920;52.242;20.940;2023-03-23T00:28:30;40.17;;;24.42;;
33593;SDS011;19920;52.242;20.940;2023-03-23T00:30:57;40.95;;;25.73;;
33593;SDS011;19920;52.242;20.940;2023-03-23T00:33:27;41.78;;;25.80;;
33593;SDS011;19920;52.242;20.940;2023-03-23T00:35:55;38.55;;;24.98;;
33593;SDS011;19920;52.242;20.940;2023-03-23T00:38:22;41.55;;;25.55;;
33593;SDS011;19920;52.242;20.940;2023-03-23T00:40:48;38.95;;;25.08;;
33593;SDS011;19920;52.242;20.940;2023-03-23T00:43:18;40.47;;;25.05;;
33593;SDS011;19920;52.242;20.940;2023-03-23T00:45:45;40.70;;;24.48;;
33593;SDS011;19920;52.242;20.940;2023-03-23T00:48:18;39.22;;;24.15;;
33593;SDS011;19920;52.242;20.940;2023-03-23T00:50:47;40.13;;;25.00;;
33593;SDS011;19920;52.242;20.940;2023-03-23T00:53:14;35.53;;;23.95;;
33593;SDS011;19920;52.242;20.940;2023-03-23T00:55:44;38.75;;;24.17;;
33593;SDS011;19920;52.242;20.940;2023-03-23T00:58:11;35.72;;;23.13;;
33593;SDS011;19920;52.242;20.940;2023-03-23T01:00:37;41.42;;;24.73;;
33593;SDS011;19920;52.242;20.940;2023-03-23T01:03:03;38.20;;;23.92;;
33593;SDS011;19920;52.242;20.940;2023-03-23T01:05:32;36.90;;;24.52;;
33593;SDS011;19920;52.242;20.940;2023-03-23T01:08:03;39.25;;;24.20;;
33593;SDS011;19920;52.242;20.940;2023-03-23T01:10:29;39.67;;;24.33;;
33593;SDS011;19920;52.242;20.940;2023-03-23T01:12:58;38.83;;;23.73;;
33593;SDS011;19920;52.242;20.940;2023-03-23T01:15:25;37.45;;;23.25;;
33593;SDS011;19920;52.242;20.940;2023-03-23T01:17:52;38.53;;;23.48;;
33593;SDS011;19920;52.242;20.940;2023-03-23T01:20:18;38.15;;;23.23;;
33593;SDS011;19920;52.242;20.940;2023-03-23T01:22:43;38.63;;;23.55;;
33593;SDS011;19920;52.242;20.940;2023-03-23T01:25:10;35.58;;;22.83;;
33593;SDS011;19920;52.242;20.940;2023-03-23T01:27:37;36.15;;;23.77;;
33593;SDS011;19920;52.242;20.940;2023-03-23T01:30:03;38.33;;;22.90;;
33593;SDS011;19920;52.242;20.940;2023-03-23T01:32:30;37.90;;;23.48;;
33593;SDS011;19920;52.242;20.940;2023-03-23T01:34:56;41.17;;;22.63;;
33593;SDS011;19920;52.242;20.940;2023-03-23T01:37:22;34.10;;;21.92;;
33593;SDS011;19920;52.242;20.940;2023-03-23T01:39:51;35.92;;;22.30;;
33593;SDS011;19920;52.242;20.940;2023-03-23T01:42:21;36.65;;;23.08;;
33593;SDS011;19920;52.242;20.940;2023-03-23T01:47:20;39.95;;;22.27;;
33593;SDS011;19920;52.242;20.940;2023-03-23T01:49:49;37.55;;;22.70;;
33593;SDS011;19920;52.242;20.940;2023-03-23T01:52:25;34.42;;;22.23;;
33593;SDS011;19920;52.242;20.940;2023-03-23T01:54:54;35.78;;;22.38;;
33593;SDS011;19920;52.242;20.940;2023-03-23T01:57:21;37.30;;;22.63;;
33593;SDS011;19920;52.242;20.940;2023-03-23T01:59:52;34.15;;;21.45;;
33593;SDS011;19920;52.242;20.940;2023-03-23T02:02:21;34.67;;;22.13;;
33593;SDS011;19920;52.242;20.940;2023-03-23T02:04:48;38.45;;;21.58;;
33593;SDS011;19920;52.242;20.940;2023-03-23T02:07:15;35.83;;;22.48;;
33593;SDS011;19920;52.242;20.940;2023-03-23T02:09:45;34.20;;;20.83;;
33593;SDS011;19920;52.242;20.940;2023-03-23T02:12:10;32.72;;;21.02;;
33593;SDS011;19920;52.242;20.940;2023-03-23T02:14:36;34.97;;;22.10;;
33593;SDS011;19920;52.242;20.940;2023-03-23T02:32:54;35.05;;;21.52;;
33593;SDS011;19920;52.242;20.940;2023-03-23T02:35:42;32.33;;;20.55;;
33593;SDS011;19920;52.242;20.940;2023-03-23T02:38:15;33.55;;;19.85;;
33593;SDS011;19920;52.242;20.940;2023-03-23T02:40:46;32.10;;;20.10;;
33593;SDS011;19920;52.242;20.940;2023-03-23T02:43:14;31.40;;;20.38;;
33593;SDS011;19920;52.242;20.940;2023-03-23T02:45:43;34.40;;;20.30;;
33593;SDS011;19920;52.242;20.940;2023-03-23T02:48:10;33.15;;;19.88;;
33593;SDS011;19920;52.242;20.940;2023-03-23T02:50:39;30.45;;;19.08;;
33593;SDS011;19920;52.242;20.940;2023-03-23T02:53:09;29.45;;;18.92;;
33593;SDS011;19920;52.242;20.940;2023-03-23T02:55:37;31.38;;;18.88;;
33593;SDS011;19920;52.242;20.940;2023-03-23T02:58:07;30.33;;;18.90;;
33593;SDS011;19920;52.242;20.940;2023-03-23T03:00:33;30.75;;;18.55;;
33593;SDS011;19920;52.242;20.940;2023-03-23T03:02:59;27.98;;;18.63;;
33593;SDS011;19920;52.242;20.940;2023-03-23T03:13:32;30.70;;;17.83;;
33593;SDS011;19920;52.242;20.940;2023-03-23T03:21:12;27.27;;;17.05;;
33593;SDS011;19920;52.242;20.940;2023-03-23T03:23:40;24.95;;;16.67;;
33593;SDS011;19920;52.242;20.940;2023-03-23T03:26:09;29.33;;;17.35;;
33593;SDS011;19920;52.242;20.940;2023-03-23T03:28:37;25.55;;;16.83;;
33593;SDS011;19920;52.242;20.940;2023-03-23T03:31:04;27.60;;;16.75;;
33593;SDS011;19920;52.242;20.940;2023-03-23T03:33:31;24.73;;;16.48;;
33593;SDS011;19920;52.242;20.940;2023-03-23T03:36:02;25.05;;;17.02;;
33593;SDS011;19920;52.242;20.940;2023-03-23T03:38:40;26.58;;;16.60;;
33593;SDS011;19920;52.242;20.940;2023-03-23T03:41:10;33.00;;;19.97;;
33593;SDS011;19920;52.242;20.940;2023-03-23T03:43:36;29.60;;;19.10;;
33593;SDS011;19920;52.242;20.940;2023-03-23T03:46:02;27.75;;;17.98;;
33593;SDS011;19920;52.242;20.940;2023-03-23T03:48:28;27.98;;;18.20;;
33593;SDS011;19920;52.242;20.940;2023-03-23T03:50:53;27.42;;;17.42;;
33593;SDS011;19920;52.242;20.940;2023-03-23T03:53:21;33.35;;;18.25;;
33593;SDS011;19920;52.242;20.940;2023-03-23T03:55:48;28.02;;;18.48;;
33593;SDS011;19920;52.242;20.940;2023-03-23T03:58:14;25.67;;;17.77;;
33593;SDS011;19920;52.242;20.940;2023-03-23T04:00:41;25.58;;;17.70;;
33593;SDS011;19920;52.242;20.940;2023-03-23T04:03:07;30.40;;;17.88;;
33593;SDS011;19920;52.242;20.940;2023-03-23T04:05:34;25.65;;;16.85;;
33593;SDS011;19920;52.242;20.940;2023-03-23T04:08:01;28.23;;;16.52;;
33593;SDS011;19920;52.242;20.940;2023-03-23T04:10:29;25.67;;;17.27;;
33593;SDS011;19920;52.242;20.940;2023-03-23T04:12:55;27.25;;;17.17;;
33593;SDS011;19920;52.242;20.940;2023-03-23T04:15:21;27.27;;;17.33;;
33593;SDS011;19920;52.242;20.940;2023-03-23T04:17:47;26.10;;;16.52;;
33593;SDS011;19920;52.242;20.940;2023-03-23T04:20:15;26.30;;;16.48;;
33593;SDS011;19920;52.242;20.940;2023-03-23T04:22:46;27.23;;;16.75;;
33593;SDS011;19920;52.242;20.940;2023-03-23T04:25:14;25.52;;;16.45;;
33593;SDS011;19920;52.242;20.940;2023-03-23T04:27:42;27.08;;;16.92;;
33593;SDS011;19920;52.242;20.940;2023-03-23T04:30:09;27.92;;;17.15;;
33593;SDS011;19920;52.242;20.940;2023-03-23T04:32:37;29.42;;;16.70;;
33593;SDS011;19920;52.242;20.940;2023-03-23T04:35:07;25.35;;;16.45;;
33593;SDS011;19920;52.242;20.940;2023-03-23T04:37:36;24.58;;;16.38;;
33593;SDS011;19920;52.242;20.940;2023-03-23T04:40:02;28.27;;;16.50;;
33593;SDS011;19920;52.242;20.940;2023-03-23T04:42:32;26.05;;;16.40;;
33593;SDS011;19920;52.242;20.940;2023-03-23T04:44:58;26.42;;;16.60;;
33593;SDS011;19920;52.242;20.940;2023-03-23T04:47:24;27.42;;;16.95;;
33593;SDS011;19920;52.242;20.940;2023-03-23T04:49:55;23.23;;;16.92;;
33593;SDS011;19920;52.242;20.940;2023-03-23T04:52:22;25.23;;;16.23;;
33593;SDS011;19920;52.242;20.940;2023-03-23T04:54:51;25.70;;;16.30;;
33593;SDS011;19920;52.242;20.940;2023-03-23T04:57:17;25.73;;;16.23;;
33593;SDS011;19920;52.242;20.940;2023-03-23T04:59:43;27.58;;;15.65;;
33593;SDS011;19920;52.242;20.940;2023-03-23T05:02:09;28.60;;;16.48;;
33593;SDS011;19920;52.242;20.940;2023-03-23T05:04:36;26.70;;;15.85;;
33593;SDS011;19920;52.242;20.940;2023-03-23T05:07:02;26.10;;;15.52;;
33593;SDS011;19920;52.242;20.940;2023-03-23T05:09:28;26.98;;;16.30;;
33593;SDS011;19920;52.242;20.940;2023-03-23T05:11:54;23.92;;;14.75;;
33593;SDS011;19920;52.242;20.940;2023-03-23T05:14:20;25.92;;;16.42;;
33593;SDS011;19920;52.242;20.940;2023-03-23T05:16:46;24.70;;;15.23;;
33593;SDS011;19920;52.242;20.940;2023-03-23T05:19:13;22.38;;;15.13;;
33593;SDS011;19920;52.242;20.940;2023-03-23T05:21:40;24.17;;;15.30;;
33593;SDS011;19920;52.242;20.940;2023-03-23T05:24:05;21.92;;;15.25;;
33593;SDS011;19920;52.242;20.940;2023-03-23T05:26:31;28.55;;;15.48;;
33593;SDS011;19920;52.242;20.940;2023-03-23T05:28:57;24.55;;;14.85;;
33593;SDS011;19920;52.242;20.940;2023-03-23T05:31:23;27.42;;;16.40;;
33593;SDS011;19920;52.242;20.940;2023-03-23T05:33:49;25.88;;;14.75;;
33593;SDS011;19920;52.242;20.940;2023-03-23T05:36:15;24.55;;;15.43;;
33593;SDS011;19920;52.242;20.940;2023-03-23T05:38:41;23.90;;;14.93;;
33593;SDS011;19920;52.242;20.940;2023-03-23T05:41:14;22.40;;;14.80;;
33593;SDS011;19920;52.242;20.940;2023-03-23T05:46:05;26.08;;;15.23;;
33593;SDS011;19920;52.242;20.940;2023-03-23T05:48:32;26.27;;;15.20;;
33593;SDS011;19920;52.242;20.940;2023-03-23T05:50:58;26.85;;;14.73;;
33593;SDS011;19920;52.242;20.940;2023-03-23T05:53:24;21.65;;;14.90;;
33593;SDS011;19920;52.242;20.940;2023-03-23T05:55:50;21.73;;;14.65;;
33593;SDS011;19920;52.242;20.940;2023-03-23T05:58:17;23.98;;;15.27;;
33593;SDS011;19920;52.242;20.940;2023-03-23T06:00:43;28.25;;;14.32;;
33593;SDS011;19920;52.242;20.940;2023-03-23T06:03:10;23.33;;;14.98;;
33593;SDS011;19920;52.242;20.940;2023-03-23T06:05:36;22.70;;;13.45;;
33593;SDS011;19920;52.242;20.940;2023-03-23T06:08:09;22.63;;;13.77;;
33593;SDS011;19920;52.242;20.940;2023-03-23T06:10:35;25.02;;;14.00;;
33593;SDS011;19920;52.242;20.940;2023-03-23T06:13:01;21.35;;;14.30;;
33593;SDS011;19920;52.242;20.940;2023-03-23T06:15:27;24.75;;;14.68;;
33593;SDS011;19920;52.242;20.940;2023-03-23T06:17:58;22.50;;;13.40;;
33593;SDS011;19920;52.242;20.940;2023-03-23T06:20:24;21.05;;;13.45;;
33593;SDS011;19920;52.242;20.940;2023-03-23T06:22:49;21.90;;;13.32;;
33593;SDS011;19920;52.242;20.940;2023-03-23T06:25:17;22.25;;;12.55;;
33593;SDS011;19920;52.242;20.940;2023-03-23T06:27:43;19.95;;;12.93;;
33593;SDS011;19920;52.242;20.940;2023-03-23T06:30:10;19.33;;;12.93;;
33593;SDS011;19920;52.242;20.940;2023-03-23T06:32:37;22.35;;;13.95;;
33593;SDS011;19920;52.242;20.940;2023-03-23T06:35:04;26.67;;;14.68;;
33593;SDS011;19920;52.242;20.940;2023-03-23T06:37:30;26.92;;;15.50;;
33593;SDS011;19920;52.242;20.940;2023-03-23T06:39:55;24.50;;;13.48;;
33593;SDS011;19920;52.242;20.940;2023-03-23T06:42:22;22.08;;;13.32;;
33593;SDS011;19920;52.242;20.940;2023-03-23T06:44:51;23.25;;;13.98;;
33593;SDS011;19920;52.242;20.940;2023-03-23T06:47:17;23.83;;;13.02;;
33593;SDS011;19920;52.242;20.940;2023-03-23T06:49:43;20.27;;;12.57;;
33593;SDS011;19920;52.242;20.940;2023-03-23T06:52:08;18.35;;;12.68;;
33593;SDS011;19920;52.242;20.940;2023-03-23T06:54:34;20.13;;;13.18;;
33593;SDS011;19920;52.242;20.940;2023-03-23T06:56:59;19.95;;;12.65;;
33593;SDS011;19920;52.242;20.940;2023-03-23T06:59:26;18.42;;;12.02;;
33593;SDS011;19920;52.242;20.940;2023-03-23T07:01:51;17.50;;;12.00;;
33593;SDS011;19920;52.242;20.940;2023-03-23T07:04:17;20.52;;;12.15;;
33593;SDS011;19920;52.242;20.940;2023-03-23T07:06:43;19.42;;;11.80;;
33593;SDS011;19920;52.242;20.940;2023-03-23T07:09:09;20.08;;;11.85;;
33593;SDS011;19920;52.242;20.940;2023-03-23T07:11:34;16.63;;;11.20;;
33593;SDS011;19920;52.242;20.940;2023-03-23T07:14:01;17.42;;;11.77;;
33593;SDS011;19920;52.242;20.940;2023-03-23T07:16:26;17.27;;;11.50;;
33593;SDS011;19920;52.242;20.940;2023-03-23T07:18:52;21.25;;;11.95;;
33593;SDS011;19920;52.242;20.940;2023-03-23T07:21:18;17.45;;;11.25;;
33593;SDS011;19920;52.242;20.940;2023-03-23T07:23:43;18.55;;;11.57;;
33593;SDS011;19920;52.242;20.940;2023-03-23T07:26:11;23.27;;;11.73;;
33593;SDS011;19920;52.242;20.940;2023-03-23T07:28:37;17.15;;;11.05;;
33593;SDS011;19920;52.242;20.940;2023-03-23T07:31:04;15.68;;;10.57;;
33593;SDS011;19920;52.242;20.940;2023-03-23T07:33:30;16.80;;;9.93;;
33593;SDS011;19920;52.242;20.940;2023-03-23T07:35:58;17.60;;;9.88;;
33593;SDS011;19920;52.242;20.940;2023-03-23T07:38:26;18.15;;;9.98;;
33593;SDS011;19920;52.242;20.940;2023-03-23T07:40:52;15.63;;;9.63;;
33593;SDS011;19920;52.242;20.940;2023-03-23T07:43:18;18.23;;;9.38;;
33593;SDS011;19920;52.242;20.940;2023-03-23T07:45:45;16.50;;;9.82;;
33593;SDS011;19920;52.242;20.940;2023-03-23T07:48:10;17.88;;;9.57;;
33593;SDS011;19920;52.242;20.940;2023-03-23T07:50:37;13.15;;;8.93;;
33593;SDS011;19920;52.242;20.940;2023-03-23T07:53:03;13.52;;;8.55;;
33593;SDS011;19920;52.242;20.940;2023-03-23T07:55:29;12.02;;;8.52;;
33593;SDS011;19920;52.242;20.940;2023-03-23T07:57:55;15.23;;;8.63;;
33593;SDS011;19920;52.242;20.940;2023-03-23T08:00:22;16.17;;;8.90;;
33593;SDS011;19920;52.242;20.940;2023-03-23T08:02:56;13.88;;;8.13;;
33593;SDS011;19920;52.242;20.940;2023-03-23T08:05:22;13.15;;;8.43;;
33593;SDS011;19920;52.242;20.940;2023-03-23T08:07:51;12.63;;;7.93;;
33593;SDS011;19920;52.242;20.940;2023-03-23T08:10:19;12.88;;;7.95;;
33593;SDS011;19920;52.242;20.940;2023-03-23T08:12:49;10.77;;;7.75;;
33593;SDS011;19920;52.242;20.940;2023-03-23T08:15:17;13.52;;;7.32;;
33593;SDS011;19920;52.242;20.940;2023-03-23T08:17:43;10.80;;;7.10;;
33593;SDS011;19920;52.242;20.940;2023-03-23T08:20:10;13.30;;;7.60;;
33593;SDS011;19920;52.242;20.940;2023-03-23T08:22:41;12.80;;;7.55;;
33593;SDS011;19920;52.242;20.940;2023-03-23T08:25:10;12.13;;;7.18;;
33593;SDS011;19920;52.242;20.940;2023-03-23T08:27:38;12.45;;;6.70;;
33593;SDS011;19920;52.242;20.940;2023-03-23T08:30:08;12.82;;;6.88;;
33593;SDS011;19920;52.242;20.940;2023-03-23T08:32:36;14.70;;;7.03;;
33593;SDS011;19920;52.242;20.940;2023-03-23T08:35:02;10.82;;;7.18;;
33593;SDS011;19920;52.242;20.940;2023-03-23T08:37:28;14.88;;;6.90;;
33593;SDS011;19920;52.242;20.940;2023-03-23T08:39:56;10.50;;;6.93;;
33593;SDS011;19920;52.242;20.940;2023-03-23T08:42:24;11.57;;;7.00;;
33593;SDS011;19920;52.242;20.940;2023-03-23T08:44:51;10.50;;;6.65;;
33593;SDS011;19920;52.242;20.940;2023-03-23T08:47:17;13.30;;;6.60;;
33593;SDS011;19920;52.242;20.940;2023-03-23T08:49:44;11.32;;;6.30;;
33593;SDS011;19920;52.242;20.940;2023-03-23T08:52:10;10.95;;;5.97;;
33593;SDS011;19920;52.242;20.940;2023-03-23T08:54:36;11.73;;;6.38;;
33593;SDS011;19920;52.242;20.940;2023-03-23T08:57:03;11.50;;;5.63;;
33593;SDS011;19920;52.242;20.940;2023-03-23T08:59:29;10.27;;;6.55;;
33593;SDS011;19920;52.242;20.940;2023-03-23T09:01:55;9.75;;;5.70;;
33593;SDS011;19920;52.242;20.940;2023-03-23T09:04:20;10.48;;;5.65;;
33593;SDS011;19920;52.242;20.940;2023-03-23T09:06:46;9.07;;;5.20;;
33593;SDS011;19920;52.242;20.940;2023-03-23T09:09:12;8.25;;;4.95;;
33593;SDS011;19920;52.242;20.940;2023-03-23T09:11:39;9.02;;;5.00;;
33593;SDS011;19920;52.242;20.940;2023-03-23T09:14:05;9.70;;;5.00;;
33593;SDS011;19920;52.242;20.940;2023-03-23T09:16:32;7.38;;;4.57;;
33593;SDS011;19920;52.242;20.940;2023-03-23T09:18:59;10.85;;;4.43;;
33593;SDS011;19920;52.242;20.940;2023-03-23T09:21:25;8.57;;;4.45;;
33593;SDS011;19920;52.242;20.940;2023-03-23T09:23:52;7.20;;;4.82;;
33593;SDS011;19920;52.242;20.940;2023-03-23T09:26:22;8.70;;;4.55;;
33593;SDS011;19920;52.242;20.940;2023-03-23T09:28:49;7.90;;;4.93;;
33593;SDS011;19920;52.242;20.940;2023-03-23T09:31:16;8.38;;;4.60;;
33593;SDS011;19920;52.242;20.940;2023-03-23T09:33:45;8.93;;;4.80;;
33593;SDS011;19920;52.242;20.940;2023-03-23T09:36:12;9.10;;;4.45;;
33593;SDS011;19920;52.242;20.940;2023-03-23T09:38:39;8.50;;;4.50;;
33593;SDS011;19920;52.242;20.940;2023-03-23T09:46:24;6.18;;;4.55;;
33593;SDS011;19920;52.242;20.940;2023-03-23T09:48:53;7.60;;;4.45;;
33593;SDS011;19920;52.242;20.940;2023-03-23T09:56:52;8.05;;;4.03;;
33593;SDS011;19920;52.242;20.940;2023-03-23T09:59:21;6.82;;;4.53;;
33593;SDS011;19920;52.242;20.940;2023-03-23T10:01:55;7.57;;;4.07;;
33593;SDS011;19920;52.242;20.940;2023-03-23T10:04:47;9.02;;;3.97;;
33593;SDS011;19920;52.242;20.940;2023-03-23T10:07:21;6.45;;;4.03;;
33593;SDS011;19920;52.242;20.940;2023-03-23T10:09:51;5.70;;;3.33;;
33593;SDS011;19920;52.242;20.940;2023-03-23T10:12:27;4.88;;;3.03;;
33593;SDS011;19920;52.242;20.940;2023-03-23T10:25:53;5.65;;;3.60;;
33593;SDS011;19920;52.242;20.940;2023-03-23T10:28:41;6.85;;;2.92;;
33593;SDS011;19920;52.242;20.940;2023-03-23T10:31:10;7.45;;;3.30;;
33593;SDS011;19920;52.242;20.940;2023-03-23T10:36:28;5.68;;;3.13;;
33593;SDS011;19920;52.242;20.940;2023-03-23T10:38:58;4.20;;;2.80;;
33593;SDS011;19920;52.242;20.940;2023-03-23T10:41:28;5.80;;;3.33;;
33593;SDS011;19920;52.242;20.940;2023-03-23T10:43:55;7.32;;;3.20;;
33593;SDS011;19920;52.242;20.940;2023-03-23T10:48:47;6.60;;;3.40;;
33593;SDS011;19920;52.242;20.940;2023-03-23T10:51:16;6.72;;;3.40;;
33593;SDS011;19920;52.242;20.940;2023-03-23T10:53:49;5.53;;;3.53;;
33593;SDS011;19920;52.242;20.940;2023-03-23T10:56:25;9.00;;;3.83;;
33593;SDS011;19920;52.242;20.940;2023-03-23T10:58:53;7.35;;;3.90;;
33593;SDS011;19920;52.242;20.940;2023-03-23T11:01:20;5.32;;;3.47;;
33593;SDS011;19920;52.242;20.940;2023-03-23T11:03:57;7.05;;;3.28;;
33593;SDS011;19920;52.242;20.940;2023-03-23T11:06:32;8.15;;;3.45;;
33593;SDS011;19920;52.242;20.940;2023-03-23T11:09:11;7.55;;;2.88;;
33593;SDS011;19920;52.242;20.940;2023-03-23T11:11:41;4.40;;;2.90;;
33593;SDS011;19920;52.242;20.940;2023-03-23T11:14:18;3.45;;;2.55;;
33593;SDS011;19920;52.242;20.940;2023-03-23T11:16:51;7.60;;;2.30;;
33593;SDS011;19920;52.242;20.940;2023-03-23T11:19:27;6.63;;;2.60;;
33593;SDS011;19920;52.242;20.940;2023-03-23T11:21:54;3.92;;;2.22;;
33593;SDS011;19920;52.242;20.940;2023-03-23T11:24:33;4.35;;;2.03;;
33593;SDS011;19920;52.242;20.940;2023-03-23T11:29:31;4.90;;;2.10;;
33593;SDS011;19920;52.242;20.940;2023-03-23T11:34:30;6.35;;;2.33;;
33593;SDS011;19920;52.242;20.940;2023-03-23T11:37:05;3.75;;;2.25;;
33593;SDS011;19920;52.242;20.940;2023-03-23T11:40:00;5.18;;;2.67;;
33593;SDS011;19920;52.242;20.940;2023-03-23T11:45:32;4.40;;;2.28;;
33593;SDS011;19920;52.242;20.940;2023-03-23T11:48:14;5.82;;;2.20;;
33593;SDS011;19920;52.242;20.940;2023-03-23T11:50:49;3.45;;;2.28;;
33593;SDS011;19920;52.242;20.940;2023-03-23T11:56:01;7.50;;;2.13;;
33593;SDS011;19920;52.242;20.940;2023-03-23T11:58:47;9.13;;;2.08;;
33593;SDS011;19920;52.242;20.940;2023-03-23T12:09:53;5.13;;;2.20;;
33593;SDS011;19920;52.242;20.940;2023-03-23T12:14:58;3.47;;;2.30;;
33593;SDS011;19920;52.242;20.940;2023-03-23T12:18:09;6.47;;;2.35;;
33593;SDS011;19920;52.242;20.940;2023-03-23T12:26:12;3.85;;;2.25;;
33593;SDS011;19920;52.242;20.940;2023-03-23T12:28:51;8.25;;;2.58;;
33593;SDS011;19920;52.242;20.940;2023-03-23T12:34:30;5.93;;;2.20;;
33593;SDS011;19920;52.242;20.940;2023-03-23T12:48:06;7.40;;;3.00;;
33593;SDS011;19920;52.242;20.940;2023-03-23T12:53:23;5.30;;;2.72;;
33593;SDS011;19920;52.242;20.940;2023-03-23T12:56:20;5.72;;;2.80;;
33593;SDS011;19920;52.242;20.940;2023-03-23T12:58:50;8.35;;;3.42;;
33593;SDS011;19920;52.242;20.940;2023-03-23T13:01:24;6.57;;;3.10;;
33593;SDS011;19920;52.242;20.940;2023-03-23T13:06:31;8.30;;;3.10;;
33593;SDS011;19920;52.242;20.940;2023-03-23T13:11:55;7.15;;;3.38;;
33593;SDS011;19920;52.242;20.940;2023-03-23T13:14:45;5.95;;;3.38;;
33593;SDS011;19920;52.242;20.940;2023-03-23T13:17:37;10.13;;;3.60;;
33593;SDS011;19920;52.242;20.940;2023-03-23T13:20:23;5.53;;;3.47;;
33593;SDS011;19920;52.242;20.940;2023-03-23T13:34:20;5.43;;;3.55;;
33593;SDS011;19920;52.242;20.940;2023-03-23T13:39:32;8.05;;;3.65;;
33593;SDS011;19920;52.242;20.940;2023-03-23T13:44:42;5.28;;;2.92;;
33593;SDS011;19920;52.242;20.940;2023-03-23T14:02:50;8.85;;;2.72;;
33593;SDS011;19920;52.242;20.940;2023-03-23T14:07:52;6.03;;;2.55;;
33593;SDS011;19920;52.242;20.940;2023-03-23T14:10:20;6.78;;;2.72;;
33593;SDS011;19920;52.242;20.940;2023-03-23T14:12:48;8.40;;;2.90;;
33593;SDS011;19920;52.242;20.940;2023-03-23T14:15:17;6.75;;;3.20;;
33593;SDS011;19920;52.242;20.940;2023-03-23T14:17:43;6.90;;;3.40;;
33593;SDS011;19920;52.242;20.940;2023-03-23T14:20:52;5.03;;;3.35;;
33593;SDS011;19920;52.242;20.940;2023-03-23T14:23:01;7.65;;;3.72;;
33593;SDS011;19920;52.242;20.940;2023-03-23T14:25:27;6.60;;;4.00;;
33593;SDS011;19920;52.242;20.940;2023-03-23T14:27:55;8.88;;;4.00;;
33593;SDS011;19920;52.242;20.940;2023-03-23T14:30:23;11.35;;;4.22;;
33593;SDS011;19920;52.242;20.940;2023-03-23T14:32:51;7.32;;;3.67;;
33593;SDS011;19920;52.242;20.940;2023-03-23T14:35:20;7.72;;;3.45;;
33593;SDS011;19920;52.242;20.940;2023-03-23T14:37:55;10.45;;;4.10;;
33593;SDS011;19920;52.242;20.940;2023-03-23T14:40:21;9.10;;;3.88;;
33593;SDS011;19920;52.242;20.940;2023-03-23T14:42:47;6.97;;;4.10;;
33593;SDS011;19920;52.242;20.940;2023-03-23T14:45:17;8.57;;;4.28;;
33593;SDS011;19920;52.242;20.940;2023-03-23T14:47:48;8.25;;;4.20;;
33593;SDS011;19920;52.242;20.940;2023-03-23T14:53:03;7.10;;;3.80;;
33593;SDS011;19920;52.242;20.940;2023-03-23T14:55:55;8.82;;;4.05;;
33593;SDS011;19920;52.242;20.940;2023-03-23T14:58:24;8.23;;;4.57;;
33593;SDS011;19920;52.242;20.940;2023-03-23T15:01:00;9.07;;;4.78;;
33593;SDS011;19920;52.242;20.940;2023-03-23T15:03:32;8.32;;;4.53;;
33593;SDS011;19920;52.242;20.940;2023-03-23T15:06:03;7.97;;;4.80;;
33593;SDS011;19920;52.242;20.940;2023-03-23T15:08:34;8.43;;;5.20;;
33593;SDS011;19920;52.242;20.940;2023-03-23T15:11:22;7.97;;;4.65;;
33593;SDS011;19920;52.242;20.940;2023-03-23T15:13:53;5.95;;;4.43;;
33593;SDS011;19920;52.242;20.940;2023-03-23T15:16:26;8.00;;;4.40;;
33593;SDS011;19920;52.242;20.940;2023-03-23T15:18:57;8.45;;;4.35;;
33593;SDS011;19920;52.242;20.940;2023-03-23T15:21:57;8.07;;;4.95;;
33593;SDS011;19920;52.242;20.940;2023-03-23T15:24:24;8.35;;;4.40;;
33593;SDS011;19920;52.242;20.940;2023-03-23T15:29:51;6.60;;;4.50;;
33593;SDS011;19920;52.242;20.940;2023-03-23T15:32:29;11.05;;;4.63;;
33593;SDS011;19920;52.242;20.940;2023-03-23T15:35:03;9.73;;;4.60;;
33593;SDS011;19920;52.242;20.940;2023-03-23T15:37:41;6.75;;;4.25;;
33593;SDS011;19920;52.242;20.940;2023-03-23T15:40:16;9.30;;;4.97;;
33593;SDS011;19920;52.242;20.940;2023-03-23T15:45:25;8.38;;;4.90;;
33593;SDS011;19920;52.242;20.940;2023-03-23T15:47:52;10.02;;;4.50;;
33593;SDS011;19920;52.242;20.940;2023-03-23T15:52:53;8.02;;;4.80;;
33593;SDS011;19920;52.242;20.940;2023-03-23T15:57:45;7.70;;;4.18;;
33593;SDS011;19920;52.242;20.940;2023-03-23T16:00:11;10.07;;;4.18;;
33593;SDS011;19920;52.242;20.940;2023-03-23T16:02:37;8.95;;;5.03;;
33593;SDS011;19920;52.242;20.940;2023-03-23T16:05:03;5.85;;;4.18;;
33593;SDS011;19920;52.242;20.940;2023-03-23T16:07:30;9.13;;;3.85;;
33593;SDS011;19920;52.242;20.940;2023-03-23T16:09:56;7.30;;;4.20;;
33593;SDS011;19920;52.242;20.940;2023-03-23T16:12:21;7.75;;;4.50;;
33593;SDS011;19920;52.242;20.940;2023-03-23T16:14:47;9.65;;;4.47;;
33593;SDS011;19920;52.242;20.940;2023-03-23T16:17:18;8.35;;;4.53;;
33593;SDS011;19920;52.242;20.940;2023-03-23T16:19:45;13.88;;;5.45;;
33593;SDS011;19920;52.242;20.940;2023-03-23T16:22:11;11.00;;;4.43;;
33593;SDS011;19920;52.242;20.940;2023-03-23T16:24:36;11.98;;;5.72;;
33593;SDS011;19920;52.242;20.940;2023-03-23T16:27:02;11.60;;;5.47;;
33593;SDS011;19920;52.242;20.940;2023-03-23T16:29:30;7.20;;;4.80;;
33593;SDS011;19920;52.242;20.940;2023-03-23T16:31:56;7.18;;;4.68;;
33593;SDS011;19920;52.242;20.940;2023-03-23T16:34:22;6.10;;;3.90;;
33593;SDS011;19920;52.242;20.940;2023-03-23T16:36:47;8.43;;;4.25;;
33593;SDS011;19920;52.242;20.940;2023-03-23T16:39:13;10.00;;;5.78;;
33593;SDS011;19920;52.242;20.940;2023-03-23T16:41:43;8.38;;;4.40;;
33593;SDS011;19920;52.242;20.940;2023-03-23T16:44:09;7.22;;;4.80;;
33593;SDS011;19920;52.242;20.940;2023-03-23T16:46:34;6.20;;;4.20;;
33593;SDS011;19920;52.242;20.940;2023-03-23T16:49:00;6.22;;;4.25;;
33593;SDS011;19920;52.242;20.940;2023-03-23T16:51:26;7.50;;;4.55;;
33593;SDS011;19920;52.242;20.940;2023-03-23T16:53:51;7.88;;;4.40;;
33593;SDS011;19920;52.242;20.940;2023-03-23T16:56:17;7.85;;;4.57;;
33593;SDS011;19920;52.242;20.940;2023-03-23T16:58:42;9.65;;;4.60;;
33593;SDS011;19920;52.242;20.940;2023-03-23T17:01:08;6.32;;;4.78;;
33593;SDS011;19920;52.242;20.940;2023-03-23T17:03:34;8.15;;;5.20;;
33593;SDS011;19920;52.242;20.940;2023-03-23T17:06:00;9.52;;;6.07;;
33593;SDS011;19920;52.242;20.940;2023-03-23T17:08:26;10.15;;;6.32;;
33593;SDS011;19920;52.242;20.940;2023-03-23T17:10:52;9.00;;;6.43;;
33593;SDS011;19920;52.242;20.940;2023-03-23T17:13:18;9.45;;;5.90;;